Time;durP1;ratioP1;P1;durP2;ratioP2;P2;SDS_P1;SDS_P2;PMS_P1;PMS_P2;Temp;Humidity;BMP_temperature;BMP_pressure;BME280_temperature;BME280_humidity;BME280_pressure;Samples;Min_cycle;Max_cycle;Signal;HPM_P1;HPM_P2
2021/07/28 00:00:06;;;;;;;1.90;1.80;;;18.90;99.90;;;;;;4805839;29;20406;-78
2021/07/28 00:02:42;;;;;;;2.72;2.42;;;19.00;99.90;;;;;;4815359;29;20480;-77
2021/07/28 00:05:08;;;;;;;2.30;2.20;;;18.90;99.90;;;;;;4801591;29;20491;-77
2021/07/28 00:07:34;;;;;;;2.15;2.05;;;18.80;99.90;;;;;;4814649;29;20435;-78
2021/07/28 00:10:01;;;;;;;2.65;2.45;;;18.80;99.90;;;;;;4830472;29;20410;-78
2021/07/28 00:12:27;;;;;;;5.22;2.53;;;18.70;99.90;;;;;;4803844;29;20936;-78
2021/07/28 00:14:53;;;;;;;3.97;1.85;;;18.60;99.90;;;;;;4806025;29;20478;-78
2021/07/28 00:17:19;;;;;;;4.07;2.20;;;18.70;99.90;;;;;;4819394;29;20481;-78
2021/07/28 00:19:52;;;;;;;5.13;2.00;;;18.60;99.90;;;;;;4815491;29;20417;-78
2021/07/28 00:25:04;;;;;;;1.90;1.80;;;18.80;99.90;;;;;;4831490;29;20960;-78
2021/07/28 00:27:31;;;;;;;2.33;2.13;;;18.80;99.90;;;;;;4808380;29;20410;-78
2021/07/28 00:29:57;;;;;;;1.80;1.70;;;18.70;99.90;;;;;;4803769;29;20446;-79
2021/07/28 00:32:23;;;;;;;2.15;1.95;;;18.80;99.90;;;;;;4800211;29;20430;-78
2021/07/28 00:34:49;;;;;;;2.03;1.92;;;18.80;99.90;;;;;;4813210;29;20928;-78
2021/07/28 00:37:15;;;;;;;2.00;1.90;;;18.90;99.90;;;;;;4808206;29;20537;-78
2021/07/28 00:39:42;;;;;;;1.90;1.80;;;18.90;99.90;;;;;;4811703;29;20472;-78
2021/07/28 00:42:08;;;;;;;5.60;2.10;;;18.90;99.90;;;;;;4799589;29;20989;-78
2021/07/28 00:44:34;;;;;;;2.10;1.90;;;18.90;99.90;;;;;;4815649;29;20441;-78
2021/07/28 00:47:00;;;;;;;2.60;1.85;;;18.80;99.90;;;;;;4810539;29;20422;-78
2021/07/28 00:49:27;;;;;;;3.15;2.20;;;18.80;99.90;;;;;;4789571;29;20418;-78
2021/07/28 00:51:55;;;;;;;1.87;1.77;;;18.80;99.90;;;;;;4800404;29;21013;-78
2021/07/28 00:54:21;;;;;;;2.10;2.00;;;18.80;99.90;;;;;;4832197;29;20428;-78
2021/07/28 00:56:47;;;;;;;1.80;1.70;;;18.80;99.90;;;;;;4802272;29;20418;-78
2021/07/28 00:59:14;;;;;;;2.00;1.90;;;18.80;99.90;;;;;;4783851;29;20855;-78
2021/07/28 01:01:40;;;;;;;2.50;2.30;;;18.80;99.90;;;;;;4825092;29;20869;-77
2021/07/28 01:04:06;;;;;;;1.98;1.80;;;18.80;99.90;;;;;;4819787;29;20424;-78
2021/07/28 01:06:33;;;;;;;2.17;2.03;;;18.70;99.90;;;;;;4805009;29;20772;-79
2021/07/28 01:09:00;;;;;;;2.10;1.98;;;18.70;99.90;;;;;;4811080;29;20424;-78
2021/07/28 01:11:27;;;;;;;2.60;2.40;;;18.60;99.90;;;;;;4803093;29;20406;-78
2021/07/28 01:13:55;;;;;;;2.70;2.50;;;18.70;99.90;;;;;;4828860;29;20931;-78
2021/07/28 01:16:25;;;;;;;2.65;2.38;;;18.80;99.90;;;;;;4804107;29;20536;-78
2021/07/28 01:18:51;;;;;;;4.25;2.42;;;18.70;99.90;;;;;;4817888;29;20412;-79
2021/07/28 01:21:19;;;;;;;2.75;2.50;;;18.60;99.90;;;;;;4822376;29;20423;-78
2021/07/28 01:23:45;;;;;;;2.70;2.47;;;18.60;99.90;;;;;;4819074;29;20412;-78
2021/07/28 01:26:11;;;;;;;3.08;2.20;;;18.60;99.90;;;;;;4796629;29;20410;-78
2021/07/28 01:28:37;;;;;;;2.30;2.10;;;18.60;99.90;;;;;;4802062;29;20422;-78
2021/07/28 01:31:10;;;;;;;2.38;2.17;;;18.50;99.90;;;;;;4804156;29;20407;-78
2021/07/28 01:33:44;;;;;;;1.93;1.83;;;18.60;99.90;;;;;;4818882;29;20453;-78
2021/07/28 01:36:15;;;;;;;2.33;2.15;;;18.60;99.90;;;;;;4804241;29;20417;-78
2021/07/28 01:38:41;;;;;;;2.33;2.13;;;18.60;99.90;;;;;;4798850;29;20436;-78
2021/07/28 01:41:07;;;;;;;2.25;2.05;;;18.60;99.90;;;;;;4791941;29;20412;-79
2021/07/28 01:43:33;;;;;;;1.90;1.80;;;18.60;99.90;;;;;;4817319;29;20786;-78
2021/07/28 01:46:00;;;;;;;2.38;2.20;;;18.60;99.90;;;;;;4816600;29;20439;-77
2021/07/28 01:48:26;;;;;;;2.40;2.20;;;18.60;99.90;;;;;;4810647;29;20779;-77
2021/07/28 01:50:54;;;;;;;2.63;2.42;;;18.60;99.90;;;;;;4799661;29;20410;-78
2021/07/28 01:53:20;;;;;;;2.25;1.98;;;18.60;99.90;;;;;;4790094;29;20419;-77
2021/07/28 01:55:46;;;;;;;3.53;2.50;;;18.50;99.90;;;;;;4794863;29;20422;-78
2021/07/28 01:58:12;;;;;;;2.38;2.17;;;18.60;99.90;;;;;;4814721;29;20910;-78
2021/07/28 02:00:39;;;;;;;3.30;2.60;;;18.60;99.90;;;;;;4816070;29;20969;-78
2021/07/28 02:03:05;;;;;;;3.37;2.40;;;18.50;99.90;;;;;;4830946;29;20424;-78
2021/07/28 02:05:31;;;;;;;2.53;2.33;;;18.60;99.90;;;;;;4813767;29;20483;-78
2021/07/28 02:08:05;;;;;;;2.35;2.15;;;18.50;99.90;;;;;;4803111;29;20511;-78
2021/07/28 02:10:34;;;;;;;2.53;2.33;;;18.50;99.90;;;;;;4819260;29;20420;-77
2021/07/28 02:13:01;;;;;;;3.15;2.95;;;18.50;99.90;;;;;;4815444;29;20421;-78
2021/07/28 02:15:27;;;;;;;3.70;2.45;;;18.30;99.90;;;;;;4801285;29;20794;-78
2021/07/28 02:17:53;;;;;;;2.95;2.50;;;18.40;99.90;;;;;;4800917;29;20417;-78
2021/07/28 02:20:19;;;;;;;2.08;1.98;;;18.40;99.90;;;;;;4804767;29;20492;-79
2021/07/28 02:22:46;;;;;;;3.10;2.80;;;18.40;99.90;;;;;;4803788;29;20880;-77
2021/07/28 02:25:13;;;;;;;3.95;2.42;;;18.30;99.90;;;;;;4804149;29;20428;-77
2021/07/28 02:27:39;;;;;;;3.35;2.95;;;18.40;99.90;;;;;;4803733;29;20412;-77
2021/07/28 02:30:06;;;;;;;2.40;2.20;;;18.40;99.90;;;;;;4825990;29;20483;-79
2021/07/28 02:32:32;;;;;;;2.60;2.40;;;18.30;99.90;;;;;;4806274;29;20494;-78
2021/07/28 02:34:58;;;;;;;4.10;2.28;;;18.40;99.90;;;;;;4810497;29;20418;-78
2021/07/28 02:37:24;;;;;;;2.17;2.00;;;18.30;99.90;;;;;;4809925;29;20503;-77
2021/07/28 02:39:50;;;;;;;2.67;2.47;;;18.30;99.90;;;;;;4810972;29;20934;-77
2021/07/28 02:42:16;;;;;;;2.57;2.37;;;18.30;99.90;;;;;;4824191;29;20420;-77
2021/07/28 02:44:45;;;;;;;2.05;1.95;;;18.30;99.90;;;;;;4802834;29;20436;-78
2021/07/28 02:47:11;;;;;;;1.85;1.75;;;18.30;99.90;;;;;;4800148;29;20445;-77
2021/07/28 02:49:37;;;;;;;2.60;2.40;;;18.30;99.90;;;;;;4816547;29;20425;-78
2021/07/28 02:52:04;;;;;;;2.85;2.65;;;18.30;99.90;;;;;;4822467;29;20414;-78
2021/07/28 02:54:30;;;;;;;2.78;2.58;;;18.20;99.90;;;;;;4799754;29;20450;-79
2021/07/28 02:56:56;;;;;;;2.53;2.33;;;18.10;99.90;;;;;;4813348;29;21107;-78
2021/07/28 02:59:23;;;;;;;3.63;2.25;;;18.10;99.90;;;;;;4802581;29;20500;-77
2021/07/28 03:01:49;;;;;;;3.90;2.65;;;18.20;99.90;;;;;;4803535;29;20420;-77
2021/07/28 03:04:16;;;;;;;2.40;2.00;;;18.00;99.90;;;;;;4796938;29;20465;-77
2021/07/28 03:06:42;;;;;;;2.53;2.33;;;18.00;99.90;;;;;;4810387;29;20404;-77
2021/07/28 03:09:08;;;;;;;2.17;2.08;;;18.00;99.90;;;;;;4798369;29;20507;-77
2021/07/28 03:11:34;;;;;;;3.15;2.10;;;18.00;99.90;;;;;;4817768;29;20403;-78
2021/07/28 03:14:00;;;;;;;2.17;2.08;;;18.00;99.90;;;;;;4797337;29;20441;-77
2021/07/28 03:16:26;;;;;;;2.40;2.20;;;17.90;99.90;;;;;;4803170;29;20810;-78
2021/07/28 03:18:52;;;;;;;2.50;2.30;;;18.00;99.90;;;;;;4799766;29;20421;-77
2021/07/28 03:21:18;;;;;;;2.30;2.13;;;17.80;99.90;;;;;;4797744;29;20422;-77
2021/07/28 03:23:44;;;;;;;2.60;2.40;;;18.00;99.90;;;;;;4797208;29;20420;-78
2021/07/28 03:26:10;;;;;;;2.60;2.28;;;17.90;99.90;;;;;;4826811;29;20416;-77
2021/07/28 03:28:36;;;;;;;2.13;1.92;;;18.10;99.90;;;;;;4816183;29;20417;-78
2021/07/28 03:31:02;;;;;;;2.70;2.50;;;18.10;99.90;;;;;;4803495;29;20808;-78
2021/07/28 03:33:28;;;;;;;3.65;2.40;;;18.10;99.90;;;;;;4804440;29;20565;-78
2021/07/28 03:35:54;;;;;;;3.40;2.10;;;18.20;99.90;;;;;;4831839;29;20423;-78
2021/07/28 03:38:20;;;;;;;2.63;2.17;;;18.10;99.90;;;;;;4833478;29;20423;-78
2021/07/28 03:40:46;;;;;;;2.20;2.10;;;18.30;99.90;;;;;;4792907;29;20432;-78
2021/07/28 03:43:14;;;;;;;3.17;2.83;;;18.30;99.90;;;;;;4790585;29;20421;-79
2021/07/28 03:45:40;;;;;;;2.38;2.17;;;18.50;99.90;;;;;;4805566;29;20574;-77
2021/07/28 03:48:06;;;;;;;2.47;2.28;;;18.30;99.90;;;;;;4800873;29;20463;-78
2021/07/28 03:50:32;;;;;;;3.00;2.80;;;18.40;99.90;;;;;;4813598;29;20421;-77
2021/07/28 03:52:59;;;;;;;2.80;2.60;;;18.30;99.90;;;;;;4818085;29;20501;-77
2021/07/28 03:55:26;;;;;;;2.90;2.70;;;18.20;99.90;;;;;;4809087;29;20410;-76
2021/07/28 03:57:51;;;;;;;2.38;2.25;;;18.20;99.90;;;;;;4804568;29;20498;-77
2021/07/28 04:00:18;;;;;;;2.47;2.30;;;18.20;99.90;;;;;;4793766;29;20426;-78
2021/07/28 04:02:44;;;;;;;2.63;2.40;;;18.20;99.90;;;;;;4788306;29;20914;-77
2021/07/28 04:05:11;;;;;;;3.05;2.75;;;18.10;99.90;;;;;;4820015;29;20482;-76
2021/07/28 04:07:37;;;;;;;3.00;2.80;;;18.20;99.90;;;;;;4791422;29;20432;-76
2021/07/28 04:10:03;;;;;;;3.60;2.90;;;18.20;99.90;;;;;;4813880;29;20482;-77
2021/07/28 04:12:29;;;;;;;2.80;2.45;;;18.20;99.90;;;;;;4791845;29;20505;-78
2021/07/28 04:14:56;;;;;;;2.75;2.55;;;18.10;99.90;;;;;;4806330;29;20422;-77
2021/07/28 04:17:22;;;;;;;3.30;3.00;;;18.20;99.90;;;;;;4805528;29;20497;-76
2021/07/28 04:19:51;;;;;;;3.40;3.10;;;18.20;99.90;;;;;;4820874;29;20426;-75
2021/07/28 04:22:19;;;;;;;3.33;3.03;;;18.20;99.90;;;;;;4805187;29;20453;-78
2021/07/28 04:24:46;;;;;;;2.90;2.60;;;18.30;99.90;;;;;;4811023;29;20439;-78
2021/07/28 04:27:12;;;;;;;2.83;2.63;;;18.20;99.90;;;;;;4805215;29;20439;-77
2021/07/28 04:29:38;;;;;;;4.50;3.20;;;18.50;99.90;;;;;;4810223;29;20509;-77
2021/07/28 04:32:05;;;;;;;3.20;2.90;;;18.50;99.90;;;;;;4825334;29;20581;-77
2021/07/28 04:34:33;;;;;;;3.45;3.15;;;18.40;99.90;;;;;;4820191;29;20824;-77
2021/07/28 04:36:59;;;;;;;4.10;3.70;;;18.50;99.90;;;;;;4814123;29;20463;-77
2021/07/28 04:39:25;;;;;;;9.38;3.50;;;18.60;99.90;;;;;;4820908;29;20459;-78
2021/07/28 04:41:51;;;;;;;3.03;2.83;;;18.70;99.90;;;;;;4800555;29;20458;-77
2021/07/28 04:44:17;;;;;;;3.47;3.17;;;18.70;99.90;;;;;;4823830;29;20936;-77
2021/07/28 04:46:43;;;;;;;3.97;2.50;;;18.90;99.90;;;;;;4834259;29;20415;-77
2021/07/28 04:49:10;;;;;;;3.05;2.75;;;19.00;99.90;;;;;;4778020;29;20420;-77
2021/07/28 04:51:36;;;;;;;3.15;2.85;;;19.00;99.90;;;;;;4802760;29;20453;-77
2021/07/28 04:54:02;;;;;;;3.53;3.20;;;19.10;99.90;;;;;;4827526;29;20418;-78
2021/07/28 04:56:28;;;;;;;3.70;3.40;;;19.10;99.90;;;;;;4820124;29;20409;-78
2021/07/28 04:58:54;;;;;;;4.07;3.67;;;19.10;99.90;;;;;;4830182;29;20406;-77
2021/07/28 05:01:20;;;;;;;4.78;3.35;;;19.20;99.90;;;;;;4812221;29;20528;-78
2021/07/28 05:03:45;;;;;;;3.50;3.20;;;19.10;99.90;;;;;;4814353;29;20495;-77
2021/07/28 05:06:11;;;;;;;3.20;2.90;;;19.20;99.90;;;;;;4794060;29;20421;-76
2021/07/28 05:08:37;;;;;;;3.20;2.97;;;19.20;99.90;;;;;;4812127;29;20410;-77
2021/07/28 05:11:03;;;;;;;3.70;3.30;;;19.30;99.90;;;;;;4821683;29;20976;-80
2021/07/28 05:13:29;;;;;;;3.20;2.90;;;19.30;99.90;;;;;;4820784;29;20406;-79
2021/07/28 05:15:55;;;;;;;3.03;2.72;;;19.40;99.90;;;;;;4808105;29;20483;-78
2021/07/28 05:18:24;;;;;;;3.47;3.17;;;19.40;99.90;;;;;;4839691;29;20411;-79
2021/07/28 05:20:50;;;;;;;3.65;3.35;;;19.50;99.90;;;;;;4819482;29;20420;-77
2021/07/28 05:23:15;;;;;;;4.30;3.50;;;19.50;99.90;;;;;;4804821;29;20406;-78
2021/07/28 05:25:41;;;;;;;3.40;3.17;;;19.60;99.90;;;;;;4787669;29;20430;-77
2021/07/28 05:28:06;;;;;;;3.42;2.97;;;19.60;99.90;;;;;;4818693;29;20415;-77
2021/07/28 05:30:33;;;;;;;2.80;2.60;;;19.70;99.90;;;;;;4812967;29;20794;-77
2021/07/28 05:32:58;;;;;;;3.55;3.25;;;19.80;99.90;;;;;;4813863;29;20813;-77
2021/07/28 05:35:24;;;;;;;2.83;2.63;;;19.80;99.90;;;;;;4812386;29;20420;-78
2021/07/28 05:38:02;;;;;;;3.40;3.10;;;19.90;99.90;;;;;;4818271;29;21074;-77
2021/07/28 05:40:28;;;;;;;2.72;2.53;;;19.90;99.90;;;;;;4802891;29;21128;-77
2021/07/28 05:42:54;;;;;;;2.93;2.73;;;19.90;99.90;;;;;;4812209;29;20423;-77
2021/07/28 05:45:20;;;;;;;2.95;2.65;;;19.90;99.90;;;;;;4808209;29;20422;-77
2021/07/28 05:47:45;;;;;;;3.20;2.90;;;20.00;99.90;;;;;;4796703;29;20422;-77
2021/07/28 05:50:14;;;;;;;3.78;3.08;;;20.00;99.90;;;;;;4799082;29;20433;-77
2021/07/28 05:52:40;;;;;;;3.20;2.83;;;20.00;99.90;;;;;;4809154;29;20479;-77
2021/07/28 05:55:06;;;;;;;3.42;3.13;;;20.00;99.90;;;;;;4820612;29;20410;-77
2021/07/28 05:57:32;;;;;;;3.45;3.15;;;20.00;99.90;;;;;;4807482;29;20394;-77
2021/07/28 05:59:58;;;;;;;3.20;2.90;;;20.00;99.90;;;;;;4798009;29;20940;-77
2021/07/28 06:02:23;;;;;;;2.80;2.60;;;20.10;99.90;;;;;;4798132;29;20405;-78
2021/07/28 06:04:49;;;;;;;3.10;2.90;;;20.10;99.90;;;;;;4816276;29;20426;-77
2021/07/28 06:07:15;;;;;;;2.97;2.67;;;20.20;99.90;;;;;;4812197;29;20417;-77
2021/07/28 06:09:41;;;;;;;2.80;2.60;;;20.20;99.90;;;;;;4802376;29;20470;-77
2021/07/28 06:12:07;;;;;;;2.90;2.70;;;20.30;99.90;;;;;;4815636;29;20498;-77
2021/07/28 06:14:33;;;;;;;3.50;3.10;;;20.50;99.90;;;;;;4803536;29;20408;-77
2021/07/28 06:16:58;;;;;;;2.83;2.63;;;20.60;99.90;;;;;;4799196;29;20469;-78
2021/07/28 06:19:24;;;;;;;3.20;2.83;;;20.70;99.90;;;;;;4816135;29;20811;-77
2021/07/28 06:21:50;;;;;;;3.67;3.37;;;20.90;99.90;;;;;;4816816;29;20438;-77
2021/07/28 06:24:15;;;;;;;3.20;2.90;;;21.00;99.90;;;;;;4792149;29;20420;-77
2021/07/28 06:26:41;;;;;;;3.00;2.80;;;20.90;99.90;;;;;;4816612;29;20410;-77
2021/07/28 06:29:06;;;;;;;3.20;2.90;;;21.00;99.90;;;;;;4803030;29;20416;-77
2021/07/28 06:31:32;;;;;;;3.33;3.03;;;21.10;99.90;;;;;;4800440;29;20469;-78
2021/07/28 06:33:58;;;;;;;3.08;2.85;;;21.20;99.90;;;;;;4813553;29;20458;-77
2021/07/28 06:36:23;;;;;;;2.80;2.60;;;21.20;99.90;;;;;;4786933;29;20457;-77
2021/07/28 06:38:49;;;;;;;2.90;2.70;;;21.20;99.90;;;;;;4803805;29;20908;-77
2021/07/28 06:41:15;;;;;;;3.20;2.90;;;21.30;99.90;;;;;;4795807;29;20773;-77
2021/07/28 06:43:40;;;;;;;3.00;2.80;;;21.30;99.90;;;;;;4808239;29;20769;-77
2021/07/28 06:46:06;;;;;;;2.72;2.53;;;21.40;99.90;;;;;;4811903;29;20874;-78
2021/07/28 06:48:32;;;;;;;2.90;2.70;;;21.40;99.90;;;;;;4817470;29;20771;-77
2021/07/28 06:50:58;;;;;;;3.57;3.27;;;21.40;99.90;;;;;;4797986;29;20766;-77
2021/07/28 06:53:23;;;;;;;3.10;2.80;;;21.50;99.90;;;;;;4813295;29;20435;-77
2021/07/28 06:55:54;;;;;;;3.17;2.80;;;21.70;99.90;;;;;;4802566;29;20436;-78
2021/07/28 06:58:20;;;;;;;2.95;2.50;;;21.80;99.90;;;;;;4801667;29;20508;-77
2021/07/28 07:00:46;;;;;;;3.23;2.93;;;21.80;99.90;;;;;;4828923;29;20509;-77
2021/07/28 07:03:12;;;;;;;6.15;2.47;;;21.90;99.90;;;;;;4811425;29;20787;-78
2021/07/28 07:05:37;;;;;;;2.77;2.57;;;21.90;99.90;;;;;;4829441;29;20428;-78
2021/07/28 07:08:03;;;;;;;3.95;3.25;;;22.00;99.90;;;;;;4822803;29;20487;-77
2021/07/28 07:10:29;;;;;;;3.45;3.15;;;22.10;99.90;;;;;;4818212;29;21317;-77
2021/07/28 07:12:54;;;;;;;3.47;3.17;;;22.10;99.90;;;;;;4793315;29;20425;-78
2021/07/28 07:15:20;;;;;;;3.17;2.97;;;22.20;99.90;;;;;;4800721;29;20962;-77
2021/07/28 07:17:45;;;;;;;3.10;2.85;;;22.30;99.90;;;;;;4795116;29;20401;-78
2021/07/28 07:20:12;;;;;;;3.77;3.43;;;22.40;99.90;;;;;;4804033;29;20423;-78
2021/07/28 07:22:37;;;;;;;3.13;2.92;;;22.70;99.90;;;;;;4814945;29;20425;-78
2021/07/28 07:25:04;;;;;;;3.17;2.97;;;22.90;99.90;;;;;;4798732;29;20453;-78
2021/07/28 07:27:30;;;;;;;2.72;2.53;;;22.90;99.90;;;;;;4827915;29;21178;-78
2021/07/28 07:29:56;;;;;;;3.53;3.23;;;23.00;99.90;;;;;;4816404;29;20412;-78
2021/07/28 07:32:22;;;;;;;3.05;2.85;;;23.00;99.90;;;;;;4812483;29;20430;-77
2021/07/28 07:34:51;;;;;;;3.60;3.30;;;23.10;99.90;;;;;;4788574;29;20440;-78
2021/07/28 07:37:17;;;;;;;3.30;3.00;;;23.20;99.90;;;;;;4815268;29;20425;-79
2021/07/28 07:39:42;;;;;;;3.00;2.80;;;23.50;99.90;;;;;;4821481;29;20987;-79
2021/07/28 07:42:08;;;;;;;9.73;3.08;;;23.80;99.90;;;;;;4821302;29;20416;-78
2021/07/28 07:44:33;;;;;;;3.30;2.80;;;24.10;99.90;;;;;;4819394;29;20433;-78
2021/07/28 07:46:59;;;;;;;3.13;2.93;;;24.30;99.90;;;;;;4803586;29;20409;-78
2021/07/28 07:49:25;;;;;;;3.30;3.05;;;24.40;99.90;;;;;;4820685;29;20421;-79
2021/07/28 07:51:50;;;;;;;3.28;2.97;;;24.30;99.90;;;;;;4801238;29;20405;-78
2021/07/28 07:54:16;;;;;;;3.27;2.93;;;24.30;99.90;;;;;;4812361;29;20485;-78
2021/07/28 07:56:42;;;;;;;3.20;2.90;;;24.30;99.90;;;;;;4801199;29;20441;-78
2021/07/28 07:59:07;;;;;;;2.92;2.58;;;24.30;99.90;;;;;;4806190;29;20852;-78
2021/07/28 08:01:33;;;;;;;3.40;3.10;;;24.40;99.90;;;;;;4800046;29;20415;-78
2021/07/28 08:03:59;;;;;;;3.43;2.50;;;24.50;99.90;;;;;;4802589;29;20420;-78
2021/07/28 08:06:24;;;;;;;3.22;2.50;;;24.70;99.90;;;;;;4828926;29;20406;-78
2021/07/28 08:08:50;;;;;;;3.33;2.85;;;24.80;99.90;;;;;;4819484;29;20407;-77
2021/07/28 08:11:16;;;;;;;2.70;2.50;;;24.90;99.90;;;;;;4816531;29;20784;-78
2021/07/28 08:13:42;;;;;;;2.95;2.75;;;24.90;99.90;;;;;;4795230;29;20798;-78
2021/07/28 08:16:16;;;;;;;2.83;2.63;;;24.80;99.90;;;;;;4784707;29;20439;-78
2021/07/28 08:18:41;;;;;;;5.10;2.60;;;24.80;99.90;;;;;;4815589;29;20408;-78
2021/07/28 08:21:09;;;;;;;4.85;2.60;;;24.80;99.90;;;;;;4807396;29;20428;-78
2021/07/28 08:23:35;;;;;;;2.60;2.40;;;24.80;99.90;;;;;;4821160;29;20476;-78
2021/07/28 08:26:01;;;;;;;3.10;2.80;;;24.70;99.90;;;;;;4803625;29;20433;-78
2021/07/28 08:28:27;;;;;;;2.60;2.40;;;24.70;99.90;;;;;;4818058;29;20749;-78
2021/07/28 08:30:55;;;;;;;2.92;2.72;;;24.70;99.90;;;;;;4815254;29;20796;-78
2021/07/28 08:33:25;;;;;;;2.60;2.40;;;24.80;99.90;;;;;;4824769;29;20442;-78
2021/07/28 08:35:52;;;;;;;3.45;2.75;;;24.80;99.90;;;;;;4804912;29;20449;-78
2021/07/28 08:38:20;;;;;;;3.10;2.78;;;24.60;99.90;;;;;;4828401;29;20965;-78
2021/07/28 08:40:55;;;;;;;3.10;2.80;;;24.60;99.90;;;;;;4805488;29;20422;-78
2021/07/28 08:43:21;;;;;;;2.97;2.53;;;24.40;99.90;;;;;;4833590;29;20418;-79
2021/07/28 08:45:48;;;;;;;2.85;2.60;;;24.30;99.90;;;;;;4811525;29;21008;-78
2021/07/28 08:48:18;;;;;;;3.15;2.85;;;24.30;99.90;;;;;;4816744;29;20412;-78
2021/07/28 08:50:46;;;;;;;3.30;3.00;;;24.30;99.90;;;;;;4813390;29;20429;-78
2021/07/28 08:53:11;;;;;;;3.72;3.05;;;24.30;99.90;;;;;;4811906;29;20404;-78
2021/07/28 08:55:37;;;;;;;2.97;2.78;;;24.30;99.90;;;;;;4797610;29;20434;-78
2021/07/28 08:58:03;;;;;;;2.58;2.40;;;24.30;99.90;;;;;;4825835;29;20499;-78
2021/07/28 09:00:29;;;;;;;2.65;2.45;;;24.20;99.90;;;;;;4819962;29;21609;-78
2021/07/28 09:02:54;;;;;;;2.88;2.67;;;24.30;99.90;;;;;;4805013;29;20431;-79
2021/07/28 09:05:20;;;;;;;2.70;2.50;;;24.20;99.90;;;;;;4806277;29;20427;-78
2021/07/28 09:07:52;;;;;;;2.73;2.53;;;24.20;99.90;;;;;;4792189;29;20416;-78
2021/07/28 09:10:18;;;;;;;2.60;2.40;;;24.30;99.90;;;;;;4803925;29;20472;-78
2021/07/28 09:12:45;;;;;;;2.42;2.30;;;24.40;99.90;;;;;;4825636;29;20949;-78
2021/07/28 09:15:15;;;;;;;2.70;2.50;;;24.50;99.90;;;;;;4803206;29;20439;-78
2021/07/28 09:17:47;;;;;;;2.80;2.60;;;24.40;99.90;;;;;;4812171;29;20412;-78
2021/07/28 09:20:21;;;;;;;3.10;2.90;;;24.20;99.90;;;;;;4816918;29;20426;-77
2021/07/28 09:22:47;;;;;;;2.70;2.50;;;24.10;99.90;;;;;;4817858;29;20472;-78
2021/07/28 09:25:20;;;;;;;3.05;2.85;;;24.10;99.90;;;;;;4820816;29;20416;-77
2021/07/28 09:27:47;;;;;;;2.53;2.33;;;24.10;99.90;;;;;;4806861;29;20415;-78
2021/07/28 09:30:15;;;;;;;3.20;2.90;;;24.30;99.90;;;;;;4787715;29;20424;-78
2021/07/28 09:33:04;;;;;;;2.55;2.35;;;24.30;99.90;;;;;;4823327;29;20516;-79
2021/07/28 09:35:48;;;;;;;3.00;2.80;;;24.40;99.90;;;;;;4802962;29;20418;-78
2021/07/28 09:38:33;;;;;;;2.97;2.78;;;24.50;99.90;;;;;;4822825;29;20408;-78
2021/07/28 09:41:22;;;;;;;3.03;2.75;;;24.50;99.90;;;;;;4818416;29;20416;-78
2021/07/28 09:43:58;;;;;;;2.78;2.58;;;24.60;99.90;;;;;;4813078;29;20488;-78
2021/07/28 09:46:30;;;;;;;3.58;2.70;;;24.80;99.90;;;;;;4817001;29;20516;-77
2021/07/28 09:48:56;;;;;;;2.90;2.70;;;24.90;99.90;;;;;;4825274;29;20408;-78
2021/07/28 09:51:26;;;;;;;3.20;2.90;;;25.00;99.90;;;;;;4810778;29;20441;-78
2021/07/28 09:53:59;;;;;;;3.25;2.53;;;25.10;99.90;;;;;;4781579;29;20462;-78
2021/07/28 09:56:30;;;;;;;2.83;2.63;;;25.00;99.90;;;;;;4817447;29;20427;-78
2021/07/28 09:58:58;;;;;;;2.78;2.42;;;25.00;99.90;;;;;;4786060;29;20432;-78
2021/07/28 10:01:24;;;;;;;2.78;2.58;;;24.90;99.90;;;;;;4818522;29;20410;-77
2021/07/28 10:03:50;;;;;;;3.00;2.80;;;24.70;99.90;;;;;;4804398;29;20419;-77
2021/07/28 10:06:16;;;;;;;2.63;2.43;;;24.80;99.90;;;;;;4795419;29;20414;-78
2021/07/28 10:08:41;;;;;;;2.70;2.50;;;24.80;99.90;;;;;;4815857;29;20409;-78
2021/07/28 10:11:07;;;;;;;2.80;2.50;;;24.90;99.90;;;;;;4803919;29;20411;-77
2021/07/28 10:13:33;;;;;;;3.03;2.83;;;25.00;99.90;;;;;;4831872;29;20476;-79
2021/07/28 10:15:58;;;;;;;2.60;2.40;;;25.20;99.90;;;;;;4798684;29;20462;-78
2021/07/28 10:18:24;;;;;;;2.77;2.57;;;25.40;99.90;;;;;;4811862;29;20480;-78
2021/07/28 10:20:50;;;;;;;2.80;2.40;;;25.50;99.90;;;;;;4788377;29;20420;-78
2021/07/28 10:23:15;;;;;;;2.80;2.60;;;25.70;99.90;;;;;;4798524;29;20416;-79
2021/07/28 10:25:41;;;;;;;3.58;2.90;;;25.90;99.90;;;;;;4797392;29;20487;-78
2021/07/28 10:28:07;;;;;;;2.70;2.50;;;25.70;99.90;;;;;;4817971;29;20912;-78
2021/07/28 10:30:32;;;;;;;2.63;2.30;;;25.50;99.90;;;;;;4795996;29;21415;-79
2021/07/28 10:32:59;;;;;;;3.38;2.78;;;25.40;99.90;;;;;;4816067;29;20441;-78
2021/07/28 10:35:29;;;;;;;3.22;2.95;;;25.30;99.90;;;;;;4809225;29;20722;-78
2021/07/28 10:37:59;;;;;;;3.05;2.75;;;25.10;99.90;;;;;;4819173;29;20414;-78
2021/07/28 10:40:31;;;;;;;5.00;2.97;;;25.10;99.90;;;;;;4804385;29;20987;-79
2021/07/28 10:42:57;;;;;;;3.28;3.03;;;25.10;99.90;;;;;;4828765;29;20415;-79
2021/07/28 10:45:26;;;;;;;2.97;2.73;;;25.20;99.90;;;;;;4831931;29;20439;-78
2021/07/28 10:47:52;;;;;;;3.40;3.10;;;25.60;99.90;;;;;;4814481;29;20411;-78
2021/07/28 10:50:28;;;;;;;4.32;3.03;;;26.20;99.90;;;;;;4800505;29;20417;-79
2021/07/28 10:52:57;;;;;;;3.70;3.38;;;26.60;99.90;;;;;;4836048;29;20412;-79
2021/07/28 10:55:25;;;;;;;3.37;3.07;;;26.90;99.90;;;;;;4824629;29;20409;-79
2021/07/28 10:57:56;;;;;;;4.20;3.38;;;27.20;99.90;;;;;;4800897;29;20424;-79
2021/07/28 11:00:39;;;;;;;5.05;3.13;;;27.50;99.90;;;;;;4832825;29;20458;-79
2021/07/28 11:03:08;;;;;;;3.15;2.85;;;27.70;99.90;;;;;;4813855;29;20435;-79
2021/07/28 11:05:37;;;;;;;4.35;3.30;;;28.10;99.90;;;;;;4812472;29;20893;-79
2021/07/28 11:08:03;;;;;;;3.63;3.17;;;28.40;99.90;;;;;;4830314;29;20468;-80
2021/07/28 11:10:29;;;;;;;3.55;3.25;;;28.00;99.90;;;;;;4823664;29;20907;-78
2021/07/28 11:12:55;;;;;;;3.08;2.88;;;27.90;99.90;;;;;;4794241;29;20428;-78
2021/07/28 11:15:20;;;;;;;3.37;3.07;;;28.50;99.90;;;;;;4816609;29;20409;-79
2021/07/28 11:17:46;;;;;;;3.70;3.10;;;28.60;99.90;;;;;;4821964;29;20414;-79
2021/07/28 11:20:28;;;;;;;3.60;2.75;;;28.80;99.90;;;;;;4792303;29;20423;-78
2021/07/28 11:23:15;;;;;;;5.10;2.72;;;28.90;99.90;;;;;;4809129;29;20417;-78
2021/07/28 11:25:40;;;;;;;2.90;2.70;;;29.10;99.90;;;;;;4830481;29;21189;-78
2021/07/28 11:28:06;;;;;;;2.90;2.65;;;29.10;99.90;;;;;;4800261;29;20502;-78
2021/07/28 11:30:32;;;;;;;2.75;2.55;;;29.00;99.90;;;;;;4811357;29;20932;-78
2021/07/28 11:33:14;;;;;;;2.97;2.77;;;28.80;99.90;;;;;;4837507;29;20426;-79
2021/07/28 11:35:46;;;;;;;2.60;2.40;;;28.70;99.90;;;;;;4809983;29;20659;-78
2021/07/28 11:38:19;;;;;;;3.00;2.70;;;28.70;99.90;;;;;;4810072;29;20418;-79
2021/07/28 11:40:45;;;;;;;2.60;2.40;;;28.90;99.90;;;;;;4797396;29;20413;-80
2021/07/28 11:43:26;;;;;;;2.60;2.40;;;29.40;99.90;;;;;;4805428;29;20455;-79
2021/07/28 11:45:52;;;;;;;2.58;2.38;;;29.70;99.90;;;;;;4819837;29;20439;-79
2021/07/28 11:48:44;;;;;;;2.43;2.23;;;30.20;99.90;;;;;;4813996;29;20951;-80
2021/07/28 11:51:16;;;;;;;2.58;2.38;;;30.70;99.90;;;;;;4807446;29;20570;-79
2021/07/28 11:53:42;;;;;;;6.03;2.47;;;30.70;99.90;;;;;;4821891;29;21038;-79
2021/07/28 11:56:12;;;;;;;2.30;2.10;;;31.00;99.90;;;;;;4795735;29;20487;-80
2021/07/28 11:58:44;;;;;;;2.28;2.17;;;31.20;99.90;;;;;;4811222;29;20452;-79
2021/07/28 12:01:17;;;;;;;2.47;2.27;;;31.00;99.90;;;;;;4811517;29;20953;-79
2021/07/28 12:03:52;;;;;;;2.45;2.20;;;31.10;99.90;;;;;;4816303;29;20430;-79
2021/07/28 12:06:34;;;;;;;2.20;2.10;;;30.70;99.90;;;;;;4837131;29;20416;-79
2021/07/28 12:09:21;;;;;;;3.10;2.90;;;30.50;99.90;;;;;;4816362;29;20414;-79
2021/07/28 12:11:48;;;;;;;2.67;2.47;;;30.10;99.90;;;;;;4824105;29;20490;-79
2021/07/28 12:14:47;;;;;;;2.95;2.60;;;29.90;99.90;;;;;;4813101;29;20435;-79
2021/07/28 12:17:18;;;;;;;2.90;2.13;;;29.90;99.90;;;;;;4788350;29;20477;-79
2021/07/28 12:19:52;;;;;;;3.80;2.63;;;30.50;99.90;;;;;;4818202;29;21086;-79
2021/07/28 12:22:29;;;;;;;2.38;2.17;;;31.10;99.90;;;;;;4813818;29;20417;-79
2021/07/28 12:24:54;;;;;;;2.60;2.40;;;31.10;99.90;;;;;;4801936;29;20457;-80
2021/07/28 12:27:29;;;;;;;2.20;2.10;;;30.80;99.90;;;;;;4806768;29;20432;-79
2021/07/28 12:30:20;;;;;;;2.40;2.20;;;30.60;99.90;;;;;;4835674;29;20416;-79
2021/07/28 12:32:47;;;;;;;2.13;1.92;;;30.30;99.90;;;;;;4820190;29;20412;-79
2021/07/28 12:35:27;;;;;;;2.00;1.90;;;31.00;99.90;;;;;;4803871;29;20435;-80
2021/07/28 12:38:18;;;;;;;1.90;1.80;;;31.30;99.90;;;;;;4816478;29;20790;-79
2021/07/28 12:40:46;;;;;;;2.03;1.85;;;31.00;99.90;;;;;;4811086;29;20918;-79
2021/07/28 12:43:12;;;;;;;1.92;1.83;;;31.00;99.90;;;;;;4806779;29;20926;-78
2021/07/28 12:45:37;;;;;;;1.83;1.73;;;31.10;99.90;;;;;;4804579;29;20473;-79
2021/07/28 12:48:03;;;;;;;1.83;1.73;;;31.30;99.90;;;;;;4811122;29;20796;-80
2021/07/28 12:50:29;;;;;;;2.05;1.90;;;31.20;99.90;;;;;;4789082;29;20428;-79
2021/07/28 12:52:56;;;;;;;1.90;1.80;;;31.30;99.90;;;;;;4800801;29;20420;-79